sensor_id;sensor_type;location;lat;lon;timestamp;P1;durP1;ratioP1;P2;durP2;ratioP2
18159;SDS011;9205;52.032;4.314;2023-04-25T00:00:11;6.70;;;1.70;;
18159;SDS011;9205;52.032;4.314;2023-04-25T00:02:39;7.50;;;1.50;;
18159;SDS011;9205;52.032;4.314;2023-04-25T00:05:09;2.60;;;1.37;;
18159;SDS011;9205;52.032;4.314;2023-04-25T00:07:36;7.67;;;2.10;;
18159;SDS011;9205;52.032;4.314;2023-04-25T00:10:05;5.30;;;1.50;;
18159;SDS011;9205;52.032;4.314;2023-04-25T00:12:34;3.07;;;1.20;;
18159;SDS011;9205;52.032;4.314;2023-04-25T00:15:01;3.57;;;1.53;;
18159;SDS011;9205;52.032;4.314;2023-04-25T00:17:29;3.37;;;1.40;;
18159;SDS011;9205;52.032;4.314;2023-04-25T00:19:56;7.40;;;1.83;;
18159;SDS011;9205;52.032;4.314;2023-04-25T00:22:25;5.37;;;1.70;;
18159;SDS011;9205;52.032;4.314;2023-04-25T00:24:52;6.77;;;2.20;;
18159;SDS011;9205;52.032;4.314;2023-04-25T00:27:22;8.07;;;1.90;;
18159;SDS011;9205;52.032;4.314;2023-04-25T00:29:49;5.73;;;1.83;;
18159;SDS011;9205;52.032;4.314;2023-04-25T00:32:16;8.00;;;1.97;;
18159;SDS011;9205;52.032;4.314;2023-04-25T00:34:43;6.33;;;1.60;;
18159;SDS011;9205;52.032;4.314;2023-04-25T00:37:11;5.37;;;1.60;;
18159;SDS011;9205;52.032;4.314;2023-04-25T00:39:39;9.47;;;1.50;;
18159;SDS011;9205;52.032;4.314;2023-04-25T00:42:07;5.33;;;1.80;;
18159;SDS011;9205;52.032;4.314;2023-04-25T00:44:34;3.23;;;1.73;;
18159;SDS011;9205;52.032;4.314;2023-04-25T00:47:03;3.17;;;1.50;;
18159;SDS011;9205;52.032;4.314;2023-04-25T00:49:32;6.77;;;1.63;;
18159;SDS011;9205;52.032;4.314;2023-04-25T00:51:59;5.67;;;1.90;;
18159;SDS011;9205;52.032;4.314;2023-04-25T00:54:26;6.47;;;1.80;;
18159;SDS011;9205;52.032;4.314;2023-04-25T00:56:58;4.77;;;1.77;;
18159;SDS011;9205;52.032;4.314;2023-04-25T00:59:26;5.10;;;1.70;;
18159;SDS011;9205;52.032;4.314;2023-04-25T01:01:55;6.20;;;1.50;;
18159;SDS011;9205;52.032;4.314;2023-04-25T01:04:24;8.43;;;1.83;;
18159;SDS011;9205;52.032;4.314;2023-04-25T01:06:53;5.90;;;1.63;;
18159;SDS011;9205;52.032;4.314;2023-04-25T01:09:22;7.67;;;1.60;;
18159;SDS011;9205;52.032;4.314;2023-04-25T01:11:49;3.90;;;1.80;;
18159;SDS011;9205;52.032;4.314;2023-04-25T01:14:18;2.73;;;1.27;;
18159;SDS011;9205;52.032;4.314;2023-04-25T01:16:45;5.40;;;1.50;;
18159;SDS011;9205;52.032;4.314;2023-04-25T01:19:13;6.80;;;1.60;;
18159;SDS011;9205;52.032;4.314;2023-04-25T01:21:46;3.77;;;1.30;;
18159;SDS011;9205;52.032;4.314;2023-04-25T01:24:14;5.50;;;1.63;;
18159;SDS011;9205;52.032;4.314;2023-04-25T01:26:42;6.90;;;1.70;;
18159;SDS011;9205;52.032;4.314;2023-04-25T01:29:16;7.37;;;1.50;;
18159;SDS011;9205;52.032;4.314;2023-04-25T01:31:44;7.07;;;1.43;;
18159;SDS011;9205;52.032;4.314;2023-04-25T01:34:12;5.27;;;1.70;;
18159;SDS011;9205;52.032;4.314;2023-04-25T01:36:40;2.33;;;1.00;;
18159;SDS011;9205;52.032;4.314;2023-04-25T01:39:08;5.57;;;1.40;;
18159;SDS011;9205;52.032;4.314;2023-04-25T01:41:37;8.73;;;1.60;;
18159;SDS011;9205;52.032;4.314;2023-04-25T01:44:05;5.77;;;1.90;;
18159;SDS011;9205;52.032;4.314;2023-04-25T01:46:32;5.23;;;1.40;;
18159;SDS011;9205;52.032;4.314;2023-04-25T01:49:00;12.77;;;1.50;;
18159;SDS011;9205;52.032;4.314;2023-04-25T01:51:29;4.70;;;1.80;;
18159;SDS011;9205;52.032;4.314;2023-04-25T01:53:57;7.10;;;1.77;;
18159;SDS011;9205;52.032;4.314;2023-04-25T01:56:27;5.37;;;1.73;;
18159;SDS011;9205;52.032;4.314;2023-04-25T01:58:57;8.83;;;1.80;;
18159;SDS011;9205;52.032;4.314;2023-04-25T02:01:45;9.93;;;1.60;;
18159;SDS011;9205;52.032;4.314;2023-04-25T02:04:20;11.97;;;1.40;;
18159;SDS011;9205;52.032;4.314;2023-04-25T02:06:48;3.33;;;1.30;;
18159;SDS011;9205;52.032;4.314;2023-04-25T02:09:15;6.73;;;1.60;;
18159;SDS011;9205;52.032;4.314;2023-04-25T02:11:52;4.77;;;1.30;;
18159;SDS011;9205;52.032;4.314;2023-04-25T02:14:26;10.80;;;1.80;;
18159;SDS011;9205;52.032;4.314;2023-04-25T02:17:04;8.63;;;1.47;;
18159;SDS011;9205;52.032;4.314;2023-04-25T02:19:32;6.03;;;1.50;;
18159;SDS011;9205;52.032;4.314;2023-04-25T02:21:59;8.83;;;1.50;;
18159;SDS011;9205;52.032;4.314;2023-04-25T02:24:26;5.17;;;1.30;;
18159;SDS011;9205;52.032;4.314;2023-04-25T02:26:56;6.57;;;1.73;;
18159;SDS011;9205;52.032;4.314;2023-04-25T02:29:23;7.90;;;1.50;;
18159;SDS011;9205;52.032;4.314;2023-04-25T02:31:50;8.00;;;1.70;;
18159;SDS011;9205;52.032;4.314;2023-04-25T02:34:18;7.10;;;2.03;;
18159;SDS011;9205;52.032;4.314;2023-04-25T02:36:45;4.57;;;1.20;;
18159;SDS011;9205;52.032;4.314;2023-04-25T02:39:12;3.53;;;1.23;;
18159;SDS011;9205;52.032;4.314;2023-04-25T02:41:39;4.33;;;1.00;;
18159;SDS011;9205;52.032;4.314;2023-04-25T02:44:07;5.23;;;1.10;;
18159;SDS011;9205;52.032;4.314;2023-04-25T02:46:36;3.63;;;1.40;;
18159;SDS011;9205;52.032;4.314;2023-04-25T02:49:03;3.70;;;1.40;;
18159;SDS011;9205;52.032;4.314;2023-04-25T02:51:31;5.73;;;1.23;;
18159;SDS011;9205;52.032;4.314;2023-04-25T02:53:58;6.23;;;1.37;;
18159;SDS011;9205;52.032;4.314;2023-04-25T02:56:26;4.87;;;1.50;;
18159;SDS011;9205;52.032;4.314;2023-04-25T02:58:53;5.43;;;1.20;;
18159;SDS011;9205;52.032;4.314;2023-04-25T03:01:22;11.90;;;1.70;;
18159;SDS011;9205;52.032;4.314;2023-04-25T03:03:49;7.13;;;1.43;;
18159;SDS011;9205;52.032;4.314;2023-04-25T03:06:16;5.83;;;1.20;;
18159;SDS011;9205;52.032;4.314;2023-04-25T03:08:43;2.73;;;1.20;;
18159;SDS011;9205;52.032;4.314;2023-04-25T03:11:10;3.67;;;1.30;;
18159;SDS011;9205;52.032;4.314;2023-04-25T03:13:40;4.47;;;1.30;;
18159;SDS011;9205;52.032;4.314;2023-04-25T03:16:09;8.93;;;1.23;;
18159;SDS011;9205;52.032;4.314;2023-04-25T03:18:38;3.50;;;1.00;;
18159;SDS011;9205;52.032;4.314;2023-04-25T03:21:05;8.27;;;1.30;;
18159;SDS011;9205;52.032;4.314;2023-04-25T03:23:32;7.03;;;1.50;;
18159;SDS011;9205;52.032;4.314;2023-04-25T03:25:59;9.13;;;1.27;;
18159;SDS011;9205;52.032;4.314;2023-04-25T03:28:27;4.53;;;1.10;;
18159;SDS011;9205;52.032;4.314;2023-04-25T03:30:55;7.87;;;1.27;;
18159;SDS011;9205;52.032;4.314;2023-04-25T03:33:23;3.90;;;1.10;;
18159;SDS011;9205;52.032;4.314;2023-04-25T03:35:52;4.77;;;1.10;;
18159;SDS011;9205;52.032;4.314;2023-04-25T03:38:19;5.50;;;1.30;;
18159;SDS011;9205;52.032;4.314;2023-04-25T03:40:46;3.97;;;1.23;;
18159;SDS011;9205;52.032;4.314;2023-04-25T03:43:19;7.23;;;1.30;;
18159;SDS011;9205;52.032;4.314;2023-04-25T03:45:52;3.93;;;0.97;;
18159;SDS011;9205;52.032;4.314;2023-04-25T03:48:21;8.40;;;1.77;;
18159;SDS011;9205;52.032;4.314;2023-04-25T03:50:51;5.53;;;1.27;;
18159;SDS011;9205;52.032;4.314;2023-04-25T03:53:19;4.13;;;1.47;;
18159;SDS011;9205;52.032;4.314;2023-04-25T03:56:18;3.33;;;1.10;;
18159;SDS011;9205;52.032;4.314;2023-04-25T03:58:50;6.47;;;1.60;;
18159;SDS011;9205;52.032;4.314;2023-04-25T04:01:19;4.10;;;1.53;;
18159;SDS011;9205;52.032;4.314;2023-04-25T04:03:46;5.57;;;1.30;;
18159;SDS011;9205;52.032;4.314;2023-04-25T04:06:15;2.87;;;1.53;;
18159;SDS011;9205;52.032;4.314;2023-04-25T04:08:47;12.97;;;1.30;;
18159;SDS011;9205;52.032;4.314;2023-04-25T04:11:14;8.87;;;1.33;;
18159;SDS011;9205;52.032;4.314;2023-04-25T04:13:41;4.30;;;1.40;;
18159;SDS011;9205;52.032;4.314;2023-04-25T04:16:09;5.77;;;1.43;;
18159;SDS011;9205;52.032;4.314;2023-04-25T04:18:36;4.80;;;1.17;;
18159;SDS011;9205;52.032;4.314;2023-04-25T04:21:03;5.70;;;1.17;;
18159;SDS011;9205;52.032;4.314;2023-04-25T04:23:35;6.40;;;1.20;;
18159;SDS011;9205;52.032;4.314;2023-04-25T04:26:02;6.57;;;1.63;;
18159;SDS011;9205;52.032;4.314;2023-04-25T04:28:59;3.10;;;1.40;;
18159;SDS011;9205;52.032;4.314;2023-04-25T04:31:53;3.40;;;1.10;;
18159;SDS011;9205;52.032;4.314;2023-04-25T04:34:20;6.70;;;1.10;;
18159;SDS011;9205;52.032;4.314;2023-04-25T04:36:50;5.13;;;1.50;;
18159;SDS011;9205;52.032;4.314;2023-04-25T04:39:19;5.67;;;1.20;;
18159;SDS011;9205;52.032;4.314;2023-04-25T04:42:07;9.23;;;1.43;;
18159;SDS011;9205;52.032;4.314;2023-04-25T04:44:52;6.73;;;1.23;;
18159;SDS011;9205;52.032;4.314;2023-04-25T04:47:43;5.23;;;1.30;;
18159;SDS011;9205;52.032;4.314;2023-04-25T04:50:17;12.43;;;1.40;;
18159;SDS011;9205;52.032;4.314;2023-04-25T04:53:20;6.23;;;1.37;;
18159;SDS011;9205;52.032;4.314;2023-04-25T04:56:09;5.87;;;1.13;;
18159;SDS011;9205;52.032;4.314;2023-04-25T04:58:55;5.20;;;1.40;;
18159;SDS011;9205;52.032;4.314;2023-04-25T05:01:38;4.80;;;1.20;;
18159;SDS011;9205;52.032;4.314;2023-04-25T05:04:35;3.53;;;1.03;;
18159;SDS011;9205;52.032;4.314;2023-04-25T05:07:21;5.07;;;1.70;;
18159;SDS011;9205;52.032;4.314;2023-04-25T05:10:04;2.53;;;1.10;;
18159;SDS011;9205;52.032;4.314;2023-04-25T05:12:58;2.77;;;0.87;;
18159;SDS011;9205;52.032;4.314;2023-04-25T05:15:40;0.90;;;0.90;;
18159;SDS011;9205;52.032;4.314;2023-04-25T05:18:18;2.37;;;1.30;;
18159;SDS011;9205;52.032;4.314;2023-04-25T05:21:08;1.83;;;0.80;;
18159;SDS011;9205;52.032;4.314;2023-04-25T05:23:53;3.47;;;1.00;;
18159;SDS011;9205;52.032;4.314;2023-04-25T05:26:41;3.90;;;1.00;;
18159;SDS011;9205;52.032;4.314;2023-04-25T05:29:28;5.20;;;1.00;;
18159;SDS011;9205;52.032;4.314;2023-04-25T05:32:10;4.23;;;1.00;;
18159;SDS011;9205;52.032;4.314;2023-04-25T05:34:37;2.60;;;1.30;;
18159;SDS011;9205;52.032;4.314;2023-04-25T05:37:11;2.60;;;1.00;;
18159;SDS011;9205;52.032;4.314;2023-04-25T05:39:50;4.67;;;0.90;;
18159;SDS011;9205;52.032;4.314;2023-04-25T05:42:31;6.43;;;1.13;;
18159;SDS011;9205;52.032;4.314;2023-04-25T05:45:19;3.10;;;1.10;;
18159;SDS011;9205;52.032;4.314;2023-04-25T05:48:05;3.20;;;1.10;;
18159;SDS011;9205;52.032;4.314;2023-04-25T05:51:02;3.07;;;1.00;;
18159;SDS011;9205;52.032;4.314;2023-04-25T05:53:46;3.67;;;1.10;;
18159;SDS011;9205;52.032;4.314;2023-04-25T05:56:14;7.30;;;1.20;;
18159;SDS011;9205;52.032;4.314;2023-04-25T05:58:41;3.17;;;1.23;;
18159;SDS011;9205;52.032;4.314;2023-04-25T06:01:12;5.07;;;1.27;;
18159;SDS011;9205;52.032;4.314;2023-04-25T06:03:39;3.77;;;1.07;;
18159;SDS011;9205;52.032;4.314;2023-04-25T06:06:09;3.70;;;1.30;;
18159;SDS011;9205;52.032;4.314;2023-04-25T06:08:37;6.70;;;1.30;;
18159;SDS011;9205;52.032;4.314;2023-04-25T06:11:04;3.97;;;1.00;;
18159;SDS011;9205;52.032;4.314;2023-04-25T06:13:33;3.10;;;1.10;;
18159;SDS011;9205;52.032;4.314;2023-04-25T06:16:00;6.63;;;1.00;;
18159;SDS011;9205;52.032;4.314;2023-04-25T06:18:29;5.17;;;1.27;;
18159;SDS011;9205;52.032;4.314;2023-04-25T06:20:56;7.57;;;1.37;;
18159;SDS011;9205;52.032;4.314;2023-04-25T06:23:24;3.13;;;1.13;;
18159;SDS011;9205;52.032;4.314;2023-04-25T06:26:00;5.70;;;1.30;;
18159;SDS011;9205;52.032;4.314;2023-04-25T06:28:29;6.93;;;1.43;;
18159;SDS011;9205;52.032;4.314;2023-04-25T06:30:56;3.00;;;0.90;;
18159;SDS011;9205;52.032;4.314;2023-04-25T06:33:23;2.50;;;0.80;;
18159;SDS011;9205;52.032;4.314;2023-04-25T06:35:54;2.73;;;1.00;;
18159;SDS011;9205;52.032;4.314;2023-04-25T06:38:25;2.93;;;1.07;;
18159;SDS011;9205;52.032;4.314;2023-04-25T06:40:54;7.53;;;1.10;;
18159;SDS011;9205;52.032;4.314;2023-04-25T06:43:22;1.97;;;0.90;;
18159;SDS011;9205;52.032;4.314;2023-04-25T06:45:49;3.13;;;0.93;;
18159;SDS011;9205;52.032;4.314;2023-04-25T06:48:18;4.87;;;0.80;;
18159;SDS011;9205;52.032;4.314;2023-04-25T06:50:45;1.03;;;0.90;;
18159;SDS011;9205;52.032;4.314;2023-04-25T06:53:14;3.73;;;0.97;;
18159;SDS011;9205;52.032;4.314;2023-04-25T06:55:44;1.57;;;0.97;;
18159;SDS011;9205;52.032;4.314;2023-04-25T06:58:16;5.03;;;1.10;;
18159;SDS011;9205;52.032;4.314;2023-04-25T07:00:52;7.23;;;1.10;;
18159;SDS011;9205;52.032;4.314;2023-04-25T07:03:22;5.67;;;0.90;;
18159;SDS011;9205;52.032;4.314;2023-04-25T07:05:53;1.67;;;1.00;;
18159;SDS011;9205;52.032;4.314;2023-04-25T07:08:22;2.13;;;0.80;;
18159;SDS011;9205;52.032;4.314;2023-04-25T07:10:50;2.20;;;1.00;;
18159;SDS011;9205;52.032;4.314;2023-04-25T07:13:17;1.97;;;0.80;;
18159;SDS011;9205;52.032;4.314;2023-04-25T07:15:45;2.13;;;1.00;;
18159;SDS011;9205;52.032;4.314;2023-04-25T07:18:14;3.53;;;1.00;;
18159;SDS011;9205;52.032;4.314;2023-04-25T07:20:41;6.53;;;0.80;;
18159;SDS011;9205;52.032;4.314;2023-04-25T07:23:09;7.77;;;1.40;;
18159;SDS011;9205;52.032;4.314;2023-04-25T07:25:37;2.17;;;1.00;;
18159;SDS011;9205;52.032;4.314;2023-04-25T07:28:06;6.80;;;1.10;;
18159;SDS011;9205;52.032;4.314;2023-04-25T07:30:33;0.80;;;0.80;;
18159;SDS011;9205;52.032;4.314;2023-04-25T07:33:02;5.00;;;0.83;;
18159;SDS011;9205;52.032;4.314;2023-04-25T07:35:30;0.60;;;0.60;;
18159;SDS011;9205;52.032;4.314;2023-04-25T07:37:58;1.27;;;0.80;;
18159;SDS011;9205;52.032;4.314;2023-04-25T07:40:25;5.00;;;1.27;;
18159;SDS011;9205;52.032;4.314;2023-04-25T07:42:58;1.50;;;0.60;;
18159;SDS011;9205;52.032;4.314;2023-04-25T07:45:36;3.83;;;0.80;;
18159;SDS011;9205;52.032;4.314;2023-04-25T07:48:04;4.77;;;0.83;;
18159;SDS011;9205;52.032;4.314;2023-04-25T07:50:34;5.87;;;1.00;;
18159;SDS011;9205;52.032;4.314;2023-04-25T07:53:01;4.70;;;1.07;;
18159;SDS011;9205;52.032;4.314;2023-04-25T07:55:39;2.40;;;0.90;;
18159;SDS011;9205;52.032;4.314;2023-04-25T07:58:14;1.77;;;0.70;;
18159;SDS011;9205;52.032;4.314;2023-04-25T08:00:43;2.80;;;1.10;;
18159;SDS011;9205;52.032;4.314;2023-04-25T08:03:40;5.23;;;1.00;;
18159;SDS011;9205;52.032;4.314;2023-04-25T08:06:14;5.93;;;1.80;;
18159;SDS011;9205;52.032;4.314;2023-04-25T08:08:49;1.23;;;0.80;;
18159;SDS011;9205;52.032;4.314;2023-04-25T08:11:19;2.87;;;0.90;;
18159;SDS011;9205;52.032;4.314;2023-04-25T08:13:48;4.38;;;1.08;;
18159;SDS011;9205;52.032;4.314;2023-04-25T08:16:15;1.43;;;0.87;;
18159;SDS011;9205;52.032;4.314;2023-04-25T08:18:42;2.57;;;0.90;;
18159;SDS011;9205;52.032;4.314;2023-04-25T08:21:09;1.77;;;0.70;;
18159;SDS011;9205;52.032;4.314;2023-04-25T08:23:37;9.57;;;1.10;;
18159;SDS011;9205;52.032;4.314;2023-04-25T08:26:11;3.43;;;0.80;;
18159;SDS011;9205;52.032;4.314;2023-04-25T08:28:40;2.93;;;1.10;;
18159;SDS011;9205;52.032;4.314;2023-04-25T08:31:09;5.30;;;0.83;;
18159;SDS011;9205;52.032;4.314;2023-04-25T08:33:46;2.60;;;1.00;;
18159;SDS011;9205;52.032;4.314;2023-04-25T08:36:22;5.70;;;0.90;;
18159;SDS011;9205;52.032;4.314;2023-04-25T08:38:50;3.90;;;1.07;;
18159;SDS011;9205;52.032;4.314;2023-04-25T08:41:18;1.90;;;0.80;;
18159;SDS011;9205;52.032;4.314;2023-04-25T08:43:48;2.43;;;0.80;;
18159;SDS011;9205;52.032;4.314;2023-04-25T08:46:19;3.07;;;0.90;;
18159;SDS011;9205;52.032;4.314;2023-04-25T08:49:05;3.10;;;0.80;;
18159;SDS011;9205;52.032;4.314;2023-04-25T08:51:34;4.70;;;1.00;;
18159;SDS011;9205;52.032;4.314;2023-04-25T08:54:11;2.70;;;0.87;;
18159;SDS011;9205;52.032;4.314;2023-04-25T08:56:41;11.97;;;0.90;;
18159;SDS011;9205;52.032;4.314;2023-04-25T08:59:13;3.47;;;0.80;;
18159;SDS011;9205;52.032;4.314;2023-04-25T09:01:43;1.63;;;0.70;;
18159;SDS011;9205;52.032;4.314;2023-04-25T09:04:11;3.23;;;0.90;;
18159;SDS011;9205;52.032;4.314;2023-04-25T09:06:39;1.93;;;0.73;;
18159;SDS011;9205;52.032;4.314;2023-04-25T09:09:07;3.40;;;0.70;;
18159;SDS011;9205;52.032;4.314;2023-04-25T09:11:36;1.13;;;0.80;;
18159;SDS011;9205;52.032;4.314;2023-04-25T09:14:11;4.73;;;0.70;;
18159;SDS011;9205;52.032;4.314;2023-04-25T09:17:03;2.03;;;0.80;;
18159;SDS011;9205;52.032;4.314;2023-04-25T09:19:41;1.87;;;0.80;;
18159;SDS011;9205;52.032;4.314;2023-04-25T09:22:30;1.80;;;0.70;;
18159;SDS011;9205;52.032;4.314;2023-04-25T09:24:58;3.70;;;0.90;;
18159;SDS011;9205;52.032;4.314;2023-04-25T09:27:32;1.80;;;0.70;;
18159;SDS011;9205;52.032;4.314;2023-04-25T09:30:12;5.57;;;0.77;;
18159;SDS011;9205;52.032;4.314;2023-04-25T09:32:57;8.30;;;1.00;;
18159;SDS011;9205;52.032;4.314;2023-04-25T09:35:35;1.53;;;0.80;;
18159;SDS011;9205;52.032;4.314;2023-04-25T09:38:08;1.23;;;0.70;;
18159;SDS011;9205;52.032;4.314;2023-04-25T09:40:57;2.30;;;0.87;;
18159;SDS011;9205;52.032;4.314;2023-04-25T09:43:38;8.37;;;1.37;;
18159;SDS011;9205;52.032;4.314;2023-04-25T09:46:07;2.93;;;1.10;;
18159;SDS011;9205;52.032;4.314;2023-04-25T09:48:41;5.63;;;0.90;;
18159;SDS011;9205;52.032;4.314;2023-04-25T09:51:22;2.33;;;0.90;;
18159;SDS011;9205;52.032;4.314;2023-04-25T09:53:55;2.47;;;0.80;;
18159;SDS011;9205;52.032;4.314;2023-04-25T09:56:30;6.13;;;0.80;;
18159;SDS011;9205;52.032;4.314;2023-04-25T09:59:05;5.80;;;1.00;;
18159;SDS011;9205;52.032;4.314;2023-04-25T10:01:35;4.73;;;0.97;;
18159;SDS011;9205;52.032;4.314;2023-04-25T10:04:13;5.27;;;1.23;;
18159;SDS011;9205;52.032;4.314;2023-04-25T10:07:07;6.33;;;0.80;;
18159;SDS011;9205;52.032;4.314;2023-04-25T10:09:36;3.80;;;0.70;;
18159;SDS011;9205;52.032;4.314;2023-04-25T10:12:05;2.57;;;0.83;;
18159;SDS011;9205;52.032;4.314;2023-04-25T10:14:34;4.00;;;0.77;;
18159;SDS011;9205;52.032;4.314;2023-04-25T10:17:02;5.93;;;0.97;;
18159;SDS011;9205;52.032;4.314;2023-04-25T10:19:31;3.10;;;1.33;;
18159;SDS011;9205;52.032;4.314;2023-04-25T10:22:03;5.27;;;1.10;;
18159;SDS011;9205;52.032;4.314;2023-04-25T10:24:35;1.63;;;1.03;;
18159;SDS011;9205;52.032;4.314;2023-04-25T10:27:03;2.90;;;1.07;;
18159;SDS011;9205;52.032;4.314;2023-04-25T10:29:32;4.87;;;0.83;;
18159;SDS011;9205;52.032;4.314;2023-04-25T10:31:59;1.80;;;0.83;;
18159;SDS011;9205;52.032;4.314;2023-04-25T10:34:39;3.90;;;0.87;;
18159;SDS011;9205;52.032;4.314;2023-04-25T10:37:08;3.50;;;0.70;;
18159;SDS011;9205;52.032;4.314;2023-04-25T10:39:38;3.00;;;1.00;;
18159;SDS011;9205;52.032;4.314;2023-04-25T10:42:07;6.33;;;1.30;;
18159;SDS011;9205;52.032;4.314;2023-04-25T10:44:35;5.47;;;0.80;;
18159;SDS011;9205;52.032;4.314;2023-04-25T10:47:06;2.40;;;1.17;;
18159;SDS011;9205;52.032;4.314;2023-04-25T10:49:36;1.30;;;0.90;;
18159;SDS011;9205;52.032;4.314;2023-04-25T10:52:11;5.37;;;1.30;;
18159;SDS011;9205;52.032;4.314;2023-04-25T10:54:51;4.03;;;0.80;;
18159;SDS011;9205;52.032;4.314;2023-04-25T10:57:27;2.37;;;0.60;;
18159;SDS011;9205;52.032;4.314;2023-04-25T10:59:59;4.87;;;1.20;;
18159;SDS011;9205;52.032;4.314;2023-04-25T11:02:43;10.63;;;0.90;;
18159;SDS011;9205;52.032;4.314;2023-04-25T11:05:22;3.43;;;1.10;;
18159;SDS011;9205;52.032;4.314;2023-04-25T11:07:55;4.33;;;0.90;;
18159;SDS011;9205;52.032;4.314;2023-04-25T11:10:25;5.00;;;1.10;;
18159;SDS011;9205;52.032;4.314;2023-04-25T11:12:53;1.07;;;0.60;;
18159;SDS011;9205;52.032;4.314;2023-04-25T11:15:21;1.17;;;0.67;;
18159;SDS011;9205;52.032;4.314;2023-04-25T11:17:48;1.63;;;0.73;;
18159;SDS011;9205;52.032;4.314;2023-04-25T11:20:17;2.50;;;1.07;;
18159;SDS011;9205;52.032;4.314;2023-04-25T11:22:46;4.23;;;0.80;;
18159;SDS011;9205;52.032;4.314;2023-04-25T11:25:15;3.33;;;1.10;;
18159;SDS011;9205;52.032;4.314;2023-04-25T11:27:49;3.40;;;0.77;;
18159;SDS011;9205;52.032;4.314;2023-04-25T11:30:17;2.33;;;1.17;;
18159;SDS011;9205;52.032;4.314;2023-04-25T11:32:46;4.43;;;0.80;;
18159;SDS011;9205;52.032;4.314;2023-04-25T11:35:14;4.00;;;1.00;;
18159;SDS011;9205;52.032;4.314;2023-04-25T11:37:41;1.80;;;1.00;;
18159;SDS011;9205;52.032;4.314;2023-04-25T11:40:11;2.40;;;1.00;;
18159;SDS011;9205;52.032;4.314;2023-04-25T11:42:39;2.33;;;0.80;;
18159;SDS011;9205;52.032;4.314;2023-04-25T11:45:11;2.20;;;0.80;;
18159;SDS011;9205;52.032;4.314;2023-04-25T11:47:40;5.00;;;1.20;;
18159;SDS011;9205;52.032;4.314;2023-04-25T11:50:07;3.83;;;0.80;;
18159;SDS011;9205;52.032;4.314;2023-04-25T11:52:36;3.70;;;1.00;;
18159;SDS011;9205;52.032;4.314;2023-04-25T11:55:06;2.90;;;0.97;;
18159;SDS011;9205;52.032;4.314;2023-04-25T11:57:38;2.30;;;0.90;;
18159;SDS011;9205;52.032;4.314;2023-04-25T12:00:11;3.70;;;0.90;;
18159;SDS011;9205;52.032;4.314;2023-04-25T12:02:41;3.03;;;0.90;;
18159;SDS011;9205;52.032;4.314;2023-04-25T12:05:09;3.00;;;0.70;;
18159;SDS011;9205;52.032;4.314;2023-04-25T12:07:38;5.80;;;0.90;;
18159;SDS011;9205;52.032;4.314;2023-04-25T12:10:07;4.43;;;1.17;;
18159;SDS011;9205;52.032;4.314;2023-04-25T12:12:37;2.73;;;0.70;;
18159;SDS011;9205;52.032;4.314;2023-04-25T12:15:12;7.90;;;0.90;;
18159;SDS011;9205;52.032;4.314;2023-04-25T12:17:44;4.53;;;0.90;;
18159;SDS011;9205;52.032;4.314;2023-04-25T12:20:13;4.57;;;1.17;;
18159;SDS011;9205;52.032;4.314;2023-04-25T12:22:42;5.60;;;1.17;;
18159;SDS011;9205;52.032;4.314;2023-04-25T12:25:11;4.63;;;0.60;;
18159;SDS011;9205;52.032;4.314;2023-04-25T12:27:42;3.20;;;1.40;;
18159;SDS011;9205;52.032;4.314;2023-04-25T12:30:09;2.97;;;0.87;;
18159;SDS011;9205;52.032;4.314;2023-04-25T12:32:36;3.20;;;0.90;;
18159;SDS011;9205;52.032;4.314;2023-04-25T12:35:04;1.97;;;0.70;;
18159;SDS011;9205;52.032;4.314;2023-04-25T12:37:32;1.30;;;0.63;;
18159;SDS011;9205;52.032;4.314;2023-04-25T12:40:00;2.10;;;0.93;;
18159;SDS011;9205;52.032;4.314;2023-04-25T12:42:29;1.03;;;0.70;;
18159;SDS011;9205;52.032;4.314;2023-04-25T12:44:57;2.80;;;0.80;;
18159;SDS011;9205;52.032;4.314;2023-04-25T12:47:25;3.57;;;0.87;;
18159;SDS011;9205;52.032;4.314;2023-04-25T12:49:52;2.63;;;0.80;;
18159;SDS011;9205;52.032;4.314;2023-04-25T12:52:19;4.50;;;1.00;;
18159;SDS011;9205;52.032;4.314;2023-04-25T12:54:47;1.73;;;0.80;;
18159;SDS011;9205;52.032;4.314;2023-04-25T12:57:14;1.97;;;0.90;;
18159;SDS011;9205;52.032;4.314;2023-04-25T12:59:41;3.63;;;0.80;;
18159;SDS011;9205;52.032;4.314;2023-04-25T13:02:10;2.30;;;0.73;;
18159;SDS011;9205;52.032;4.314;2023-04-25T13:04:37;1.43;;;0.80;;
18159;SDS011;9205;52.032;4.314;2023-04-25T13:07:04;3.53;;;0.90;;
18159;SDS011;9205;52.032;4.314;2023-04-25T13:09:32;1.80;;;0.80;;
18159;SDS011;9205;52.032;4.314;2023-04-25T13:11:59;2.53;;;0.87;;
18159;SDS011;9205;52.032;4.314;2023-04-25T13:14:27;3.50;;;1.27;;
18159;SDS011;9205;52.032;4.314;2023-04-25T13:16:54;3.20;;;0.90;;
18159;SDS011;9205;52.032;4.314;2023-04-25T13:19:22;6.77;;;1.00;;
18159;SDS011;9205;52.032;4.314;2023-04-25T13:21:50;3.17;;;1.10;;
18159;SDS011;9205;52.032;4.314;2023-04-25T13:24:17;7.17;;;1.37;;
18159;SDS011;9205;52.032;4.314;2023-04-25T13:26:45;3.93;;;1.00;;
18159;SDS011;9205;52.032;4.314;2023-04-25T13:29:12;7.50;;;0.93;;
18159;SDS011;9205;52.032;4.314;2023-04-25T13:31:39;1.57;;;0.70;;
18159;SDS011;9205;52.032;4.314;2023-04-25T13:34:06;2.40;;;0.80;;
18159;SDS011;9205;52.032;4.314;2023-04-25T13:36:35;2.53;;;0.90;;
18159;SDS011;9205;52.032;4.314;2023-04-25T13:39:02;3.27;;;1.00;;
18159;SDS011;9205;52.032;4.314;2023-04-25T13:41:31;2.87;;;0.80;;
18159;SDS011;9205;52.032;4.314;2023-04-25T13:43:58;5.47;;;1.30;;
18159;SDS011;9205;52.032;4.314;2023-04-25T13:46:26;1.73;;;0.77;;
18159;SDS011;9205;52.032;4.314;2023-04-25T13:48:53;2.00;;;0.80;;
18159;SDS011;9205;52.032;4.314;2023-04-25T13:51:20;2.93;;;1.07;;
18159;SDS011;9205;52.032;4.314;2023-04-25T13:53:49;4.13;;;1.00;;
18159;SDS011;9205;52.032;4.314;2023-04-25T13:56:16;3.13;;;1.10;;
18159;SDS011;9205;52.032;4.314;2023-04-25T13:58:44;2.17;;;0.90;;
18159;SDS011;9205;52.032;4.314;2023-04-25T14:01:12;1.77;;;0.70;;
18159;SDS011;9205;52.032;4.314;2023-04-25T14:03:39;4.33;;;0.97;;
18159;SDS011;9205;52.032;4.314;2023-04-25T14:06:06;5.47;;;1.10;;
18159;SDS011;9205;52.032;4.314;2023-04-25T14:08:34;2.73;;;0.90;;
18159;SDS011;9205;52.032;4.314;2023-04-25T14:11:03;4.07;;;0.90;;
18159;SDS011;9205;52.032;4.314;2023-04-25T14:13:31;4.10;;;1.00;;
18159;SDS011;9205;52.032;4.314;2023-04-25T14:15:58;2.70;;;0.77;;
18159;SDS011;9205;52.032;4.314;2023-04-25T14:18:25;3.53;;;0.93;;
18159;SDS011;9205;52.032;4.314;2023-04-25T14:20:53;6.37;;;1.00;;
18159;SDS011;9205;52.032;4.314;2023-04-25T14:23:20;5.33;;;1.00;;
18159;SDS011;9205;52.032;4.314;2023-04-25T14:25:47;4.47;;;1.57;;
18159;SDS011;9205;52.032;4.314;2023-04-25T14:28:16;3.10;;;1.00;;
18159;SDS011;9205;52.032;4.314;2023-04-25T14:30:43;4.50;;;1.07;;
18159;SDS011;9205;52.032;4.314;2023-04-25T14:33:10;2.77;;;0.93;;
18159;SDS011;9205;52.032;4.314;2023-04-25T14:35:39;2.60;;;0.80;;
18159;SDS011;9205;52.032;4.314;2023-04-25T14:38:06;3.33;;;1.00;;
18159;SDS011;9205;52.032;4.314;2023-04-25T14:40:33;8.27;;;1.10;;
18159;SDS011;9205;52.032;4.314;2023-04-25T14:43:02;3.30;;;0.90;;
18159;SDS011;9205;52.032;4.314;2023-04-25T14:45:30;2.37;;;0.80;;
18159;SDS011;9205;52.032;4.314;2023-04-25T14:47:58;2.63;;;1.00;;
18159;SDS011;9205;52.032;4.314;2023-04-25T14:50:25;7.10;;;1.10;;
18159;SDS011;9205;52.032;4.314;2023-04-25T14:52:52;2.70;;;0.90;;
18159;SDS011;9205;52.032;4.314;2023-04-25T14:55:23;6.27;;;1.00;;
18159;SDS011;9205;52.032;4.314;2023-04-25T14:57:51;4.13;;;0.93;;
18159;SDS011;9205;52.032;4.314;2023-04-25T15:00:20;2.43;;;0.90;;
18159;SDS011;9205;52.032;4.314;2023-04-25T15:02:49;5.23;;;1.13;;
18159;SDS011;9205;52.032;4.314;2023-04-25T15:05:16;3.47;;;0.93;;
18159;SDS011;9205;52.032;4.314;2023-04-25T15:07:44;3.50;;;0.83;;
18159;SDS011;9205;52.032;4.314;2023-04-25T15:10:12;6.63;;;0.93;;
18159;SDS011;9205;52.032;4.314;2023-04-25T15:12:41;3.50;;;1.03;;
18159;SDS011;9205;52.032;4.314;2023-04-25T15:15:09;2.80;;;0.93;;
18159;SDS011;9205;52.032;4.314;2023-04-25T15:17:37;5.17;;;1.23;;
18159;SDS011;9205;52.032;4.314;2023-04-25T15:20:07;3.40;;;0.70;;
18159;SDS011;9205;52.032;4.314;2023-04-25T15:22:37;2.40;;;0.90;;